sensor_id;sensor_type;location;lat;lon;timestamp;pressure;altitude;pressure_sealevel;temperature;humidity
73267;BME280;61495;53.400;7.608;2022-11-21T00:00:11;100619.31;;;-0.13;83.27
73267;BME280;61495;53.400;7.608;2022-11-21T00:02:36;100622.94;;;-0.14;83.15
73267;BME280;61495;53.400;7.608;2022-11-21T00:05:01;100612.41;;;-0.14;83.32
73267;BME280;61495;53.400;7.608;2022-11-21T00:07:27;100611.56;;;-0.15;83.50
73267;BME280;61495;53.400;7.608;2022-11-21T00:09:52;100610.75;;;-0.15;83.27
73267;BME280;61495;53.400;7.608;2022-11-21T00:12:18;100603.81;;;-0.16;83.34
73267;BME280;61495;53.400;7.608;2022-11-21T00:14:43;100603.94;;;-0.18;83.18
73267;BME280;61495;53.400;7.608;2022-11-21T00:17:08;100600.50;;;-0.18;83.17
73267;BME280;61495;53.400;7.608;2022-11-21T00:19:34;100604.09;;;-0.19;83.37
73267;BME280;61495;53.400;7.608;2022-11-21T00:21:59;100607.72;;;-0.20;83.39
73267;BME280;61495;53.400;7.608;2022-11-21T00:24:24;100606.88;;;-0.21;83.49
73267;BME280;61495;53.400;7.608;2022-11-21T00:26:50;100612.28;;;-0.22;83.55
73267;BME280;61495;53.400;7.608;2022-11-21T00:29:15;100609.66;;;-0.22;83.58
73267;BME280;61495;53.400;7.608;2022-11-21T00:31:41;100595.81;;;-0.24;83.68
73267;BME280;61495;53.400;7.608;2022-11-21T00:34:06;100599.41;;;-0.25;83.59
73267;BME280;61495;53.400;7.608;2022-11-21T00:36:33;100595.81;;;-0.24;83.59
73267;BME280;61495;53.400;7.608;2022-11-21T00:38:58;100589.84;;;-0.26;83.69
73267;BME280;61495;53.400;7.608;2022-11-21T00:41:23;100595.13;;;-0.26;83.84
73267;BME280;61495;53.400;7.608;2022-11-21T00:43:48;100593.47;;;-0.27;83.84
73267;BME280;61495;53.400;7.608;2022-11-21T00:46:14;100583.78;;;-0.27;83.75
73267;BME280;61495;53.400;7.608;2022-11-21T00:48:39;100595.28;;;-0.28;83.95
73267;BME280;61495;53.400;7.608;2022-11-21T00:51:04;100591.69;;;-0.27;83.63
73267;BME280;61495;53.400;7.608;2022-11-21T00:53:30;100590.84;;;-0.27;83.94
73267;BME280;61495;53.400;7.608;2022-11-21T00:55:55;100587.22;;;-0.26;83.95
73267;BME280;61495;53.400;7.608;2022-11-21T00:58:21;100589.06;;;-0.27;83.92
73267;BME280;61495;53.400;7.608;2022-11-21T01:00:47;100583.09;;;-0.29;83.98
73267;BME280;61495;53.400;7.608;2022-11-21T01:03:12;100586.25;;;-0.25;84.01
73267;BME280;61495;53.400;7.608;2022-11-21T01:05:37;100583.63;;;-0.25;84.30
73267;BME280;61495;53.400;7.608;2022-11-21T01:08:03;100582.66;;;-0.24;84.00
73267;BME280;61495;53.400;7.608;2022-11-21T01:10:28;100586.09;;;-0.24;84.30
73267;BME280;61495;53.400;7.608;2022-11-21T01:12:54;100579.03;;;-0.23;84.18
73267;BME280;61495;53.400;7.608;2022-11-21T01:15:20;100583.34;;;-0.22;84.30
73267;BME280;61495;53.400;7.608;2022-11-21T01:17:45;100585.00;;;-0.21;84.45
73267;BME280;61495;53.400;7.608;2022-11-21T01:20:11;100589.28;;;-0.20;84.46
73267;BME280;61495;53.400;7.608;2022-11-21T01:22:36;100590.00;;;-0.18;84.59
73267;BME280;61495;53.400;7.608;2022-11-21T01:25:02;100579.47;;;-0.18;84.78
73267;BME280;61495;53.400;7.608;2022-11-21T01:27:28;100572.25;;;-0.16;84.64
73267;BME280;61495;53.400;7.608;2022-11-21T01:29:53;100579.16;;;-0.15;84.86
73267;BME280;61495;53.400;7.608;2022-11-21T01:32:18;100573.91;;;-0.15;84.75
73267;BME280;61495;53.400;7.608;2022-11-21T01:34:43;100569.44;;;-0.15;84.60
73267;BME280;61495;53.400;7.608;2022-11-21T01:37:09;100578.19;;;-0.14;84.72
73267;BME280;61495;53.400;7.608;2022-11-21T01:39:34;100573.63;;;-0.12;84.94
73267;BME280;61495;53.400;7.608;2022-11-21T01:41:59;100585.78;;;-0.11;84.73
73267;BME280;61495;53.400;7.608;2022-11-21T01:44:43;100576.25;;;-0.12;84.95
73267;BME280;61495;53.400;7.608;2022-11-21T01:47:09;100575.25;;;-0.11;84.95
73267;BME280;61495;53.400;7.608;2022-11-21T01:49:35;100577.75;;;-0.10;84.87
73267;BME280;61495;53.400;7.608;2022-11-21T01:52:08;100575.97;;;-0.09;84.86
73267;BME280;61495;53.400;7.608;2022-11-21T01:57:10;100559.63;;;-0.13;84.51
73267;BME280;61495;53.400;7.608;2022-11-21T02:02:23;100577.75;;;-0.10;84.57
73267;BME280;61495;53.400;7.608;2022-11-21T02:04:51;100581.50;;;-0.12;84.60
73267;BME280;61495;53.400;7.608;2022-11-21T02:07:19;100584.16;;;-0.12;84.79
73267;BME280;61495;53.400;7.608;2022-11-21T02:09:53;100582.47;;;-0.13;84.74
73267;BME280;61495;53.400;7.608;2022-11-21T02:12:27;100591.34;;;-0.14;84.73
73267;BME280;61495;53.400;7.608;2022-11-21T02:14:54;100576.66;;;-0.17;84.69
73267;BME280;61495;53.400;7.608;2022-11-21T02:17:21;100577.78;;;-0.19;84.83
73267;BME280;61495;53.400;7.608;2022-11-21T02:19:56;100586.34;;;-0.17;85.08
73267;BME280;61495;53.400;7.608;2022-11-21T02:25:16;100596.88;;;-0.17;84.76
73267;BME280;61495;53.400;7.608;2022-11-21T02:27:42;100596.88;;;-0.17;84.88
73267;BME280;61495;53.400;7.608;2022-11-21T02:30:08;100597.72;;;-0.17;85.17
73267;BME280;61495;53.400;7.608;2022-11-21T02:32:39;100595.94;;;-0.16;85.17
73267;BME280;61495;53.400;7.608;2022-11-21T02:35:05;100594.97;;;-0.15;85.27
73267;BME280;61495;53.400;7.608;2022-11-21T02:37:32;100594.97;;;-0.15;84.88
73267;BME280;61495;53.400;7.608;2022-11-21T02:40:03;100600.06;;;-0.14;84.97
73267;BME280;61495;53.400;7.608;2022-11-21T02:42:35;100599.94;;;-0.12;84.93
73267;BME280;61495;53.400;7.608;2022-11-21T02:45:20;100605.22;;;-0.12;85.37
73267;BME280;61495;53.400;7.608;2022-11-21T02:47:51;100609.47;;;-0.11;85.19
73267;BME280;61495;53.400;7.608;2022-11-21T02:50:29;100608.50;;;-0.10;84.88
73267;BME280;61495;53.400;7.608;2022-11-21T02:52:55;100598.81;;;-0.10;85.26
73267;BME280;61495;53.400;7.608;2022-11-21T02:55:25;100592.56;;;-0.09;85.34
73267;BME280;61495;53.400;7.608;2022-11-21T02:57:51;100590.75;;;-0.08;85.24
73267;BME280;61495;53.400;7.608;2022-11-21T03:00:18;100580.22;;;-0.08;85.18
73267;BME280;61495;53.400;7.608;2022-11-21T03:02:44;100572.63;;;-0.11;85.37
73267;BME280;61495;53.400;7.608;2022-11-21T03:05:10;100576.63;;;-0.07;85.61
73267;BME280;61495;53.400;7.608;2022-11-21T03:07:36;100584.66;;;-0.09;85.41
73267;BME280;61495;53.400;7.608;2022-11-21T03:10:02;100582.88;;;-0.08;85.08
73267;BME280;61495;53.400;7.608;2022-11-21T03:12:27;100583.56;;;-0.06;85.15
73267;BME280;61495;53.400;7.608;2022-11-21T03:14:52;100583.69;;;-0.08;85.21
73267;BME280;61495;53.400;7.608;2022-11-21T03:17:18;100581.91;;;-0.07;85.31
73267;BME280;61495;53.400;7.608;2022-11-21T03:19:43;100575.81;;;-0.08;85.35
73267;BME280;61495;53.400;7.608;2022-11-21T03:22:11;100578.31;;;-0.06;85.22
73267;BME280;61495;53.400;7.608;2022-11-21T03:24:36;100573.03;;;-0.06;85.46
73267;BME280;61495;53.400;7.608;2022-11-21T03:27:01;100575.50;;;-0.05;85.51
73267;BME280;61495;53.400;7.608;2022-11-21T03:29:27;100571.22;;;-0.06;85.58
73267;BME280;61495;53.400;7.608;2022-11-21T03:31:52;100572.75;;;-0.03;85.08
73267;BME280;61495;53.400;7.608;2022-11-21T03:34:17;100570.13;;;-0.03;85.34
73267;BME280;61495;53.400;7.608;2022-11-21T03:36:43;100569.13;;;-0.02;85.28
73267;BME280;61495;53.400;7.608;2022-11-21T03:39:08;100574.38;;;-0.02;85.60
73267;BME280;61495;53.400;7.608;2022-11-21T03:41:33;100563.84;;;-0.02;85.36
73267;BME280;61495;53.400;7.608;2022-11-21T03:44:07;100563.84;;;-0.02;85.41
73267;BME280;61495;53.400;7.608;2022-11-21T03:46:41;100562.88;;;-0.01;85.80
73267;BME280;61495;53.400;7.608;2022-11-21T03:49:08;100571.47;;;0.01;85.54
73267;BME280;61495;53.400;7.608;2022-11-21T03:51:34;100570.50;;;0.02;85.74
73267;BME280;61495;53.400;7.608;2022-11-21T03:53:59;100569.50;;;0.03;85.73
73267;BME280;61495;53.400;7.608;2022-11-21T03:56:25;100570.50;;;0.02;85.89
73267;BME280;61495;53.400;7.608;2022-11-21T03:58:50;100563.28;;;0.04;86.02
73267;BME280;61495;53.400;7.608;2022-11-21T04:01:16;100559.69;;;0.05;86.13
73267;BME280;61495;53.400;7.608;2022-11-21T04:03:41;100559.69;;;0.05;85.80
73267;BME280;61495;53.400;7.608;2022-11-21T04:06:08;100567.41;;;0.07;86.07
73267;BME280;61495;53.400;7.608;2022-11-21T04:08:33;100557.72;;;0.07;85.95
73267;BME280;61495;53.400;7.608;2022-11-21T04:10:58;100560.34;;;0.07;85.91
73267;BME280;61495;53.400;7.608;2022-11-21T04:13:24;100565.63;;;0.07;86.03
73267;BME280;61495;53.400;7.608;2022-11-21T04:15:49;100569.09;;;0.08;86.04
73267;BME280;61495;53.400;7.608;2022-11-21T04:18:14;100565.47;;;0.09;85.93
73267;BME280;61495;53.400;7.608;2022-11-21T04:20:40;100561.84;;;0.10;86.43
73267;BME280;61495;53.400;7.608;2022-11-21T04:23:05;100568.91;;;0.09;86.24
73267;BME280;61495;53.400;7.608;2022-11-21T04:25:31;100567.00;;;0.11;85.82
73267;BME280;61495;53.400;7.608;2022-11-21T04:27:58;100559.09;;;0.11;86.05
73267;BME280;61495;53.400;7.608;2022-11-21T04:30:24;100568.63;;;0.12;86.18
73267;BME280;61495;53.400;7.608;2022-11-21T04:32:50;100566.00;;;0.12;86.12
73267;BME280;61495;53.400;7.608;2022-11-21T04:35:16;100555.75;;;0.09;85.79
73267;BME280;61495;53.400;7.608;2022-11-21T04:37:41;100554.66;;;0.12;85.95
73267;BME280;61495;53.400;7.608;2022-11-21T04:40:07;100559.09;;;0.11;85.96
73267;BME280;61495;53.400;7.608;2022-11-21T04:42:33;100563.38;;;0.12;85.88
73267;BME280;61495;53.400;7.608;2022-11-21T04:44:58;100558.81;;;0.14;85.71
73267;BME280;61495;53.400;7.608;2022-11-21T04:47:23;100560.44;;;0.15;85.55
73267;BME280;61495;53.400;7.608;2022-11-21T04:49:48;100562.09;;;0.16;85.79
73267;BME280;61495;53.400;7.608;2022-11-21T04:52:14;100562.94;;;0.17;85.63
73267;BME280;61495;53.400;7.608;2022-11-21T04:54:39;100560.13;;;0.18;85.53
73267;BME280;61495;53.400;7.608;2022-11-21T04:57:04;100560.97;;;0.19;85.60
73267;BME280;61495;53.400;7.608;2022-11-21T04:59:30;100552.13;;;0.20;85.79
73267;BME280;61495;53.400;7.608;2022-11-21T05:01:55;100550.44;;;0.19;85.76
73267;BME280;61495;53.400;7.608;2022-11-21T05:04:20;100539.06;;;0.18;85.69
73267;BME280;61495;53.400;7.608;2022-11-21T05:06:46;100540.75;;;0.19;85.51
73267;BME280;61495;53.400;7.608;2022-11-21T05:09:11;100535.47;;;0.19;85.45
73267;BME280;61495;53.400;7.608;2022-11-21T05:11:36;100530.88;;;0.21;85.64
73267;BME280;61495;53.400;7.608;2022-11-21T05:14:20;100533.50;;;0.21;85.54
73267;BME280;61495;53.400;7.608;2022-11-21T05:16:46;100526.59;;;0.20;85.88
73267;BME280;61495;53.400;7.608;2022-11-21T05:19:11;100527.44;;;0.21;85.67
73267;BME280;61495;53.400;7.608;2022-11-21T05:21:36;100503.09;;;0.09;85.52
73267;BME280;61495;53.400;7.608;2022-11-21T05:24:01;100521.34;;;0.20;85.62
73267;BME280;61495;53.400;7.608;2022-11-21T05:26:27;100523.81;;;0.22;85.51
73267;BME280;61495;53.400;7.608;2022-11-21T05:28:52;100522.16;;;0.21;85.64
73267;BME280;61495;53.400;7.608;2022-11-21T05:31:17;100516.75;;;0.22;85.52
73267;BME280;61495;53.400;7.608;2022-11-21T05:33:43;100514.09;;;0.22;85.41
73267;BME280;61495;53.400;7.608;2022-11-21T05:36:08;100507.88;;;0.23;85.21
73267;BME280;61495;53.400;7.608;2022-11-21T05:38:33;100505.25;;;0.23;85.52
73267;BME280;61495;53.400;7.608;2022-11-21T05:40:59;100505.25;;;0.23;85.44
73267;BME280;61495;53.400;7.608;2022-11-21T05:43:24;100506.06;;;0.24;85.57
73267;BME280;61495;53.400;7.608;2022-11-21T05:46:08;100504.41;;;0.23;85.74
73267;BME280;61495;53.400;7.608;2022-11-21T05:48:34;100503.56;;;0.22;85.74
73267;BME280;61495;53.400;7.608;2022-11-21T05:51:01;100502.75;;;0.22;85.53
73267;BME280;61495;53.400;7.608;2022-11-21T05:53:27;100495.53;;;0.24;85.52
73267;BME280;61495;53.400;7.608;2022-11-21T05:55:52;100489.44;;;0.23;85.62
73267;BME280;61495;53.400;7.608;2022-11-21T05:58:18;100490.41;;;0.22;85.52
73267;BME280;61495;53.400;7.608;2022-11-21T06:00:43;100493.03;;;0.22;85.52
73267;BME280;61495;53.400;7.608;2022-11-21T06:03:09;100493.88;;;0.23;85.18
73267;BME280;61495;53.400;7.608;2022-11-21T06:06:02;100485.13;;;0.22;85.69
73267;BME280;61495;53.400;7.608;2022-11-21T06:08:29;100482.50;;;0.22;85.67
73267;BME280;61495;53.400;7.608;2022-11-21T06:10:55;100483.34;;;0.23;85.46
73267;BME280;61495;53.400;7.608;2022-11-21T06:13:20;100479.03;;;0.22;85.62
73267;BME280;61495;53.400;7.608;2022-11-21T06:15:49;100483.34;;;0.23;85.60
73267;BME280;61495;53.400;7.608;2022-11-21T06:18:16;100484.16;;;0.23;85.75
73267;BME280;61495;53.400;7.608;2022-11-21T06:20:41;100476.28;;;0.23;85.49
73267;BME280;61495;53.400;7.608;2022-11-21T06:23:06;100480.03;;;0.21;85.73
73267;BME280;61495;53.400;7.608;2022-11-21T06:25:32;100484.16;;;0.23;85.70
73267;BME280;61495;53.400;7.608;2022-11-21T06:28:00;100488.44;;;0.24;85.88
73267;BME280;61495;53.400;7.608;2022-11-21T06:30:25;100484.16;;;0.23;85.55
73267;BME280;61495;53.400;7.608;2022-11-21T06:32:51;100487.63;;;0.24;85.85
73267;BME280;61495;53.400;7.608;2022-11-21T06:35:17;100491.06;;;0.24;85.73
73267;BME280;61495;53.400;7.608;2022-11-21T06:37:42;100499.81;;;0.25;85.77
73267;BME280;61495;53.400;7.608;2022-11-21T06:40:08;100493.72;;;0.24;85.90
73267;BME280;61495;53.400;7.608;2022-11-21T06:42:34;100490.41;;;0.22;86.30
73267;BME280;61495;53.400;7.608;2022-11-21T06:44:59;100489.44;;;0.23;85.96
73267;BME280;61495;53.400;7.608;2022-11-21T06:47:24;100484.16;;;0.23;85.93
73267;BME280;61495;53.400;7.608;2022-11-21T06:49:50;100480.53;;;0.24;86.06
73267;BME280;61495;53.400;7.608;2022-11-21T06:52:15;100476.56;;;0.20;86.25
73267;BME280;61495;53.400;7.608;2022-11-21T06:54:40;100478.06;;;0.23;85.70
73267;BME280;61495;53.400;7.608;2022-11-21T06:57:06;100477.09;;;0.24;86.13
73267;BME280;61495;53.400;7.608;2022-11-21T06:59:32;100487.47;;;0.25;85.96
73267;BME280;61495;53.400;7.608;2022-11-21T07:01:57;100494.41;;;0.26;86.00
73267;BME280;61495;53.400;7.608;2022-11-21T07:04:22;100490.78;;;0.27;85.71
73267;BME280;61495;53.400;7.608;2022-11-21T07:06:48;100488.97;;;0.28;85.65
73267;BME280;61495;53.400;7.608;2022-11-21T07:09:13;100482.88;;;0.27;85.69
73267;BME280;61495;53.400;7.608;2022-11-21T07:11:39;100483.72;;;0.28;85.77
73267;BME280;61495;53.400;7.608;2022-11-21T07:14:04;100494.09;;;0.29;85.82
73267;BME280;61495;53.400;7.608;2022-11-21T07:16:32;100493.13;;;0.30;85.69
73267;BME280;61495;53.400;7.608;2022-11-21T07:18:58;100495.06;;;0.28;85.72
73267;BME280;61495;53.400;7.608;2022-11-21T07:21:25;100492.16;;;0.31;85.80
73267;BME280;61495;53.400;7.608;2022-11-21T07:23:50;100489.50;;;0.31;85.85
73267;BME280;61495;53.400;7.608;2022-11-21T07:26:16;100494.91;;;0.30;86.19
73267;BME280;61495;53.400;7.608;2022-11-21T07:28:41;100496.03;;;0.27;86.00
73267;BME280;61495;53.400;7.608;2022-11-21T07:31:07;100496.59;;;0.31;86.07
73267;BME280;61495;53.400;7.608;2022-11-21T07:33:33;100486.88;;;0.31;85.99
73267;BME280;61495;53.400;7.608;2022-11-21T07:35:58;100492.16;;;0.31;86.05
73267;BME280;61495;53.400;7.608;2022-11-21T07:38:24;100479.94;;;0.30;86.07
73267;BME280;61495;53.400;7.608;2022-11-21T07:40:50;100477.16;;;0.32;86.02
73267;BME280;61495;53.400;7.608;2022-11-21T07:43:15;100478.31;;;0.29;86.11
73267;BME280;61495;53.400;7.608;2022-11-21T07:45:41;100491.00;;;0.34;86.00
73267;BME280;61495;53.400;7.608;2022-11-21T07:48:07;100479.66;;;0.33;85.90
73267;BME280;61495;53.400;7.608;2022-11-21T07:50:33;100486.56;;;0.34;85.97
73267;BME280;61495;53.400;7.608;2022-11-21T07:52:59;100489.34;;;0.33;85.77
73267;BME280;61495;53.400;7.608;2022-11-21T07:55:26;100488.25;;;0.35;86.10
73267;BME280;61495;53.400;7.608;2022-11-21T07:58:14;100489.88;;;0.36;86.21
73267;BME280;61495;53.400;7.608;2022-11-21T08:00:41;100484.78;;;0.35;86.28
73267;BME280;61495;53.400;7.608;2022-11-21T08:03:11;100488.91;;;0.37;86.48
73267;BME280;61495;53.400;7.608;2022-11-21T08:05:37;100497.66;;;0.38;86.11
73267;BME280;61495;53.400;7.608;2022-11-21T08:08:05;100492.22;;;0.39;85.92
73267;BME280;61495;53.400;7.608;2022-11-21T08:10:30;100496.50;;;0.40;85.99
73267;BME280;61495;53.400;7.608;2022-11-21T08:12:55;100487.66;;;0.41;86.10
73267;BME280;61495;53.400;7.608;2022-11-21T08:15:21;100470.84;;;0.42;86.23
73267;BME280;61495;53.400;7.608;2022-11-21T08:17:46;100470.84;;;0.42;85.92
73267;BME280;61495;53.400;7.608;2022-11-21T08:20:12;100469.88;;;0.43;86.11
73267;BME280;61495;53.400;7.608;2022-11-21T08:22:39;100480.09;;;0.46;85.97
73267;BME280;61495;53.400;7.608;2022-11-21T08:25:05;100485.38;;;0.46;85.98
73267;BME280;61495;53.400;7.608;2022-11-21T08:27:31;100482.44;;;0.49;85.97
73267;BME280;61495;53.400;7.608;2022-11-21T08:29:56;100485.06;;;0.49;86.23
73267;BME280;61495;53.400;7.608;2022-11-21T08:32:21;100486.41;;;0.53;85.97
73267;BME280;61495;53.400;7.608;2022-11-21T08:34:47;100477.16;;;0.49;85.95
73267;BME280;61495;53.400;7.608;2022-11-21T08:37:12;100482.81;;;0.54;85.83
73267;BME280;61495;53.400;7.608;2022-11-21T08:39:38;100479.22;;;0.55;85.94
73267;BME280;61495;53.400;7.608;2022-11-21T08:42:03;100474.59;;;0.57;85.96
73267;BME280;61495;53.400;7.608;2022-11-21T08:44:30;100479.22;;;0.55;86.04
73267;BME280;61495;53.400;7.608;2022-11-21T08:46:56;100476.09;;;0.60;85.87
73267;BME280;61495;53.400;7.608;2022-11-21T08:49:21;100474.97;;;0.63;86.16
73267;BME280;61495;53.400;7.608;2022-11-21T08:51:47;100473.03;;;0.65;85.69
73267;BME280;61495;53.400;7.608;2022-11-21T08:54:16;100473.84;;;0.65;85.57
73267;BME280;61495;53.400;7.608;2022-11-21T08:56:42;100471.00;;;0.59;85.78
73267;BME280;61495;53.400;7.608;2022-11-21T08:59:08;100479.63;;;0.69;85.99
73267;BME280;61495;53.400;7.608;2022-11-21T09:01:33;100476.03;;;0.70;85.88
73267;BME280;61495;53.400;7.608;2022-11-21T09:03:58;100467.16;;;0.71;85.74
73267;BME280;61495;53.400;7.608;2022-11-21T09:06:24;100466.97;;;0.72;85.60
73267;BME280;61495;53.400;7.608;2022-11-21T09:08:49;100463.19;;;0.75;85.52
73267;BME280;61495;53.400;7.608;2022-11-21T09:11:14;100456.00;;;0.77;85.46
73267;BME280;61495;53.400;7.608;2022-11-21T09:13:40;100451.03;;;0.74;85.54
73267;BME280;61495;53.400;7.608;2022-11-21T09:16:05;100452.03;;;0.81;85.36
73267;BME280;61495;53.400;7.608;2022-11-21T09:18:52;100444.84;;;0.83;85.11
73267;BME280;61495;53.400;7.608;2022-11-21T09:21:19;100456.19;;;0.83;85.13
73267;BME280;61495;53.400;7.608;2022-11-21T09:23:45;100455.06;;;0.86;84.89
73267;BME280;61495;53.400;7.608;2022-11-21T09:26:11;100446.84;;;0.89;85.13
73267;BME280;61495;53.400;7.608;2022-11-21T09:28:37;100451.13;;;0.90;84.81
73267;BME280;61495;53.400;7.608;2022-11-21T09:31:03;100449.19;;;0.92;84.71
73267;BME280;61495;53.400;7.608;2022-11-21T09:33:29;100446.53;;;0.92;84.62
73267;BME280;61495;53.400;7.608;2022-11-21T09:35:58;100448.19;;;0.93;84.17
73267;BME280;61495;53.400;7.608;2022-11-21T09:38:24;100454.16;;;0.95;84.77
73267;BME280;61495;53.400;7.608;2022-11-21T09:40:51;100457.44;;;0.97;84.82
73267;BME280;61495;53.400;7.608;2022-11-21T09:46:12;100445.63;;;1.01;84.59
73267;BME280;61495;53.400;7.608;2022-11-21T09:51:13;100452.88;;;1.07;84.77
73267;BME280;61495;53.400;7.608;2022-11-21T09:53:57;100443.16;;;1.07;84.50
73267;BME280;61495;53.400;7.608;2022-11-21T09:56:24;100446.19;;;1.13;84.63
73267;BME280;61495;53.400;7.608;2022-11-21T10:01:41;100441.91;;;1.20;84.54
73267;BME280;61495;53.400;7.608;2022-11-21T10:04:06;100442.75;;;1.20;84.25
73267;BME280;61495;53.400;7.608;2022-11-21T10:06:42;100437.16;;;1.23;84.43
73267;BME280;61495;53.400;7.608;2022-11-21T10:12:22;100421.38;;;1.31;84.38
73267;BME280;61495;53.400;7.608;2022-11-21T10:21:31;100409.91;;;1.48;83.96
73267;BME280;61495;53.400;7.608;2022-11-21T10:27:04;100391.16;;;1.59;84.00
73267;BME280;61495;53.400;7.608;2022-11-21T10:29:42;100392.31;;;1.73;83.98
73267;BME280;61495;53.400;7.608;2022-11-21T10:32:36;100389.88;;;1.88;84.27
73267;BME280;61495;53.400;7.608;2022-11-21T10:37:57;100368.47;;;2.23;83.87
73267;BME280;61495;53.400;7.608;2022-11-21T10:40:34;100365.84;;;2.31;82.86
73267;BME280;61495;53.400;7.608;2022-11-21T10:46:07;100359.88;;;2.53;82.59
73267;BME280;61495;53.400;7.608;2022-11-21T10:48:32;100351.25;;;2.67;81.87
73267;BME280;61495;53.400;7.608;2022-11-21T10:51:09;100337.84;;;2.77;82.29
73267;BME280;61495;53.400;7.608;2022-11-21T10:53:39;100333.00;;;2.89;81.75
73267;BME280;61495;53.400;7.608;2022-11-21T10:56:25;100338.28;;;3.05;82.10
73267;BME280;61495;53.400;7.608;2022-11-21T10:58:56;100324.00;;;3.14;81.99
73267;BME280;61495;53.400;7.608;2022-11-21T11:01:32;100333.72;;;3.29;81.60
73267;BME280;61495;53.400;7.608;2022-11-21T11:06:32;100321.16;;;3.54;81.53
73267;BME280;61495;53.400;7.608;2022-11-21T11:08:57;100320.75;;;3.65;81.72
73267;BME280;61495;53.400;7.608;2022-11-21T11:11:23;100313.41;;;3.75;80.78
73267;BME280;61495;53.400;7.608;2022-11-21T11:13:58;100308.06;;;3.83;79.97
73267;BME280;61495;53.400;7.608;2022-11-21T11:16:26;100292.13;;;3.91;79.30
73267;BME280;61495;53.400;7.608;2022-11-21T11:19:16;100306.94;;;4.01;78.10
73267;BME280;61495;53.400;7.608;2022-11-21T11:21:45;100285.19;;;4.05;79.48
73267;BME280;61495;53.400;7.608;2022-11-21T11:26:58;100286.19;;;4.27;77.47
73267;BME280;61495;53.400;7.608;2022-11-21T11:29:31;100282.25;;;4.37;78.72
73267;BME280;61495;53.400;7.608;2022-11-21T11:34:44;100275.69;;;4.48;76.53
73267;BME280;61495;53.400;7.608;2022-11-21T11:40:06;100262.25;;;4.64;76.84
73267;BME280;61495;53.400;7.608;2022-11-21T11:43:02;100258.88;;;4.70;77.82
73267;BME280;61495;53.400;7.608;2022-11-21T11:48:42;100257.41;;;4.82;77.13
73267;BME280;61495;53.400;7.608;2022-11-21T11:51:27;100249.16;;;4.92;76.08
73267;BME280;61495;53.400;7.608;2022-11-21T11:54:01;100241.28;;;4.98;77.61
73267;BME280;61495;53.400;7.608;2022-11-21T11:56:32;100249.06;;;5.00;75.32
73267;BME280;61495;53.400;7.608;2022-11-21T12:01:55;100251.00;;;4.91;73.84
73267;BME280;61495;53.400;7.608;2022-11-21T12:04:23;100240.13;;;4.86;73.22
73267;BME280;61495;53.400;7.608;2022-11-21T12:06:58;100231.69;;;4.83;73.14
73267;BME280;61495;53.400;7.608;2022-11-21T12:09:42;100237.09;;;4.89;76.10
73267;BME280;61495;53.400;7.608;2022-11-21T12:12:28;100233.41;;;4.90;75.90
73267;BME280;61495;53.400;7.608;2022-11-21T12:18:12;100217.44;;;4.84;74.10
73267;BME280;61495;53.400;7.608;2022-11-21T12:23:51;100233.72;;;4.81;75.33
73267;BME280;61495;53.400;7.608;2022-11-21T12:57:13;100188.34;;;4.32;75.96
73267;BME280;61495;53.400;7.608;2022-11-21T13:00:03;100182.22;;;4.31;76.65
73267;BME280;61495;53.400;7.608;2022-11-21T13:03:02;100179.22;;;4.34;75.57
73267;BME280;61495;53.400;7.608;2022-11-21T13:05:41;100188.81;;;4.35;76.50
73267;BME280;61495;53.400;7.608;2022-11-21T13:08:16;100177.38;;;4.35;76.02
73267;BME280;61495;53.400;7.608;2022-11-21T13:10:54;100168.88;;;4.39;76.88
73267;BME280;61495;53.400;7.608;2022-11-21T13:13:45;100163.03;;;4.44;77.14
73267;BME280;61495;53.400;7.608;2022-11-21T13:16:22;100167.97;;;4.47;76.58
73267;BME280;61495;53.400;7.608;2022-11-21T13:19:03;100163.13;;;4.51;76.07
73267;BME280;61495;53.400;7.608;2022-11-21T13:21:43;100159.00;;;4.48;75.61
73267;BME280;61495;53.400;7.608;2022-11-21T13:27:24;100145.03;;;4.54;75.62
73267;BME280;61495;53.400;7.608;2022-11-21T13:32:43;100145.28;;;4.59;76.68
73267;BME280;61495;53.400;7.608;2022-11-21T13:38:01;100134.66;;;4.59;75.68
73267;BME280;61495;53.400;7.608;2022-11-21T13:45:51;100109.63;;;4.47;74.09
73267;BME280;61495;53.400;7.608;2022-11-21T13:54:32;100116.59;;;4.48;75.02
73267;BME280;61495;53.400;7.608;2022-11-21T13:57:16;100107.34;;;4.44;75.89
73267;BME280;61495;53.400;7.608;2022-11-21T14:08:18;100094.66;;;4.25;75.20
73267;BME280;61495;53.400;7.608;2022-11-21T14:10:45;100090.91;;;4.19;75.43
73267;BME280;61495;53.400;7.608;2022-11-21T14:13:30;100101.81;;;4.10;75.39
73267;BME280;61495;53.400;7.608;2022-11-21T14:18:31;100092.31;;;4.01;75.69
73267;BME280;61495;53.400;7.608;2022-11-21T14:20:59;100089.34;;;3.96;75.68
73267;BME280;61495;53.400;7.608;2022-11-21T14:23:29;100086.09;;;3.93;76.13
73267;BME280;61495;53.400;7.608;2022-11-21T14:26:01;100078.22;;;3.85;75.98
73267;BME280;61495;53.400;7.608;2022-11-21T14:28:29;100072.63;;;3.80;75.57
73267;BME280;61495;53.400;7.608;2022-11-21T14:31:01;100073.00;;;3.77;75.63
73267;BME280;61495;53.400;7.608;2022-11-21T14:33:35;100081.31;;;3.74;76.27
73267;BME280;61495;53.400;7.608;2022-11-21T14:38:55;100069.50;;;3.62;76.61
73267;BME280;61495;53.400;7.608;2022-11-21T14:43:48;100054.06;;;3.51;76.08
73267;BME280;61495;53.400;7.608;2022-11-21T14:46:15;100046.31;;;3.50;76.52
73267;BME280;61495;53.400;7.608;2022-11-21T14:48:41;100032.63;;;3.46;76.87
73267;BME280;61495;53.400;7.608;2022-11-21T14:51:14;100027.69;;;3.43;76.71
73267;BME280;61495;53.400;7.608;2022-11-21T14:53:41;100013.53;;;3.36;76.71
73267;BME280;61495;53.400;7.608;2022-11-21T14:56:22;100015.53;;;3.34;76.73
73267;BME280;61495;53.400;7.608;2022-11-21T14:58:49;100010.59;;;3.31;77.80
73267;BME280;61495;53.400;7.608;2022-11-21T15:01:27;100008.03;;;3.23;77.26
73267;BME280;61495;53.400;7.608;2022-11-21T15:03:57;100008.88;;;3.23;77.67
73267;BME280;61495;53.400;7.608;2022-11-21T15:06:23;100001.44;;;3.19;77.49
73267;BME280;61495;53.400;7.608;2022-11-21T15:08:48;100001.00;;;3.15;77.28